Terminal Aerodrome Forecast
Issued by NWS Jackson, KY

Home | Current Version | Previous Version | Text Only | Print | Product List | Glossary On
Versions: 1 2 3 4 5 6 7 8 9 10 11 12 13 14 15 16 17 18 19
000
FTUS43 KJKL 070500
TAFLOZ
TAF
KLOZ 070523Z 0706/0806 21003KT P6SM SCT250
     FM071500 23010G20KT P6SM SCT050 BKN250
     FM080000 23004KT P6SM VCTS SCT050CB BKN250=

USA.gov is the U.S. government's official web portal to all federal, state and local government web resources and services.